Flight Briefing for CPX260

Departure Arrival
General Edward Lawrence Logan International Airport (KBOS)
Click to view FAA NOTAMS
Washington Dulles International Airport (KIAD)
Click to view FAA NOTAMS
Departure Time Arrival Time
N/A N/A
Aircraft Distance
B767-300BDSF 359nm
Departure METAR Arrival METAR
KBOS 270954Z 33010KT 10SM FEW080 19/11 A2987 RMK AO2 SLP115 T01940106 KIAD 271052Z 33004KT 10SM BKN048 BKN140 22/17 A2998 RMK AO2 SLP148 T02170172
Suggested Route
BLZZR4 BLZZR BAF HYPER7


View recent IFR Routes data
Notes



Charts and Procedures

Charts for KBOS
No chart available
Charts for KIAD
No chart available

Windy.com Weather Map